Time;durP1;ratioP1;P1;durP2;ratioP2;P2;SDS_P1;SDS_P2;PMS_P1;PMS_P2;Temp;Humidity;BMP_temperature;BMP_pressure;BME280_temperature;BME280_humidity;BME280_pressure;Samples;Min_cycle;Max_cycle;Signal;HPM_P1;HPM_P2
2021/12/05 00:20:00;;;;;;;;;;;16.50;99.90;;;;;;5053437;28;19972;-81
2021/12/05 00:22:31;;;;;;;;;;;16.60;99.90;;;;;;5057022;28;20397;-81
2021/12/05 00:24:59;;;;;;;;;;;16.60;99.90;;;;;;5055862;28;19963;-82
2021/12/05 00:27:35;;;;;;;;;;;16.60;99.90;;;;;;5056924;28;19951;-75
2021/12/05 00:33:07;;;;;;;;;;;16.70;99.90;;;;;;5056264;28;19913;-75
2021/12/05 00:37:20;;;;;;;;;;;16.70;99.90;;;;;;5053138;28;19917;-80
2021/12/05 00:55:32;;;;;;;;;;;17.20;99.90;;;;;;5055414;28;20019;-78
2021/12/05 01:11:16;;;;;;;;;;;17.10;99.90;;;;;;5057565;28;20355;-78
2021/12/05 01:16:13;;;;;;;;;;;16.80;99.90;;;;;;5056513;28;20241;-80
2021/12/05 01:18:40;;;;;;;;;;;16.80;99.90;;;;;;5055225;28;19920;-77
2021/12/05 01:21:11;;;;;;;;;;;16.70;99.90;;;;;;5059279;28;19974;-76
2021/12/05 01:26:12;;;;;;;;;;;16.70;99.90;;;;;;5055320;28;19944;-79
2021/12/05 01:29:08;;;;;;;;;;;16.70;99.90;;;;;;5054969;28;20003;-81
2021/12/05 01:45:25;;;;;;;;;;;17.00;99.90;;;;;;5054019;28;19969;-81
2021/12/05 01:51:28;;;;;;;;;;;17.30;99.90;;;;;;5010074;28;20266;-78
2021/12/05 01:54:03;;;;;;;;;;;17.40;99.90;;;;;;5047176;28;19926;-76
2021/12/05 01:57:01;;;;;;;;;;;17.40;99.90;;;;;;5057759;28;19920;-79
2021/12/05 02:15:27;;;;;;;;;;;16.70;99.90;;;;;;5071357;28;19916;-81
2021/12/05 02:34:58;;;;;;;;;;;17.40;99.90;;;;;;5070929;28;19920;-75
2021/12/05 02:40:21;;;;;;;;;;;17.50;99.90;;;;;;5069820;28;19914;-78
2021/12/05 02:43:12;;;;;;;;;;;17.60;99.90;;;;;;5071181;28;19923;-80
2021/12/05 02:45:44;;;;;;;;;;;17.60;99.90;;;;;;5065227;28;19989;-79
2021/12/05 02:48:11;;;;;;;;;;;17.60;99.90;;;;;;5070893;28;20003;-76
2021/12/05 02:50:39;;;;;;;;;;;17.70;99.90;;;;;;5071520;28;19912;-73
2021/12/05 02:53:32;;;;;;;;;;;17.70;99.90;;;;;;5070420;28;19925;-80
2021/12/05 02:55:52;;;;;;;;;;;17.70;99.90;;;;;;5066505;28;19916;-77
2021/12/05 03:01:08;;;;;;;;;;;17.70;99.90;;;;;;5070881;28;19917;-76
2021/12/05 03:03:35;;;;;;;;;;;17.70;99.90;;;;;;5070531;28;19921;-76
2021/12/05 03:06:10;;;;;;;;;;;17.80;99.90;;;;;;5070474;28;19966;-74
2021/12/05 03:08:37;;;;;;;;;;;17.80;99.90;;;;;;5070423;28;19978;-76
2021/12/05 03:11:05;;;;;;;;;;;17.70;99.90;;;;;;5068763;28;19944;-80
2021/12/05 03:13:33;;;;;;;;;;;17.80;99.90;;;;;;5070625;28;19923;-76
2021/12/05 03:16:00;;;;;;;;;;;17.80;99.90;;;;;;5070604;28;19912;-74
2021/12/05 03:18:26;;;;;;;;;;;17.80;99.90;;;;;;5070030;28;19935;-76
2021/12/05 03:20:53;;;;;;;;;;;17.80;99.90;;;;;;5070652;28;19925;-77
2021/12/05 03:23:20;;;;;;;;;;;17.80;99.90;;;;;;5070590;28;19931;-81
2021/12/05 03:25:46;;;;;;;;;;;17.80;99.90;;;;;;5070563;28;19927;-73
2021/12/05 03:28:13;;;;;;;;;;;17.80;99.90;;;;;;5070269;28;20385;-74
2021/12/05 03:30:40;;;;;;;;;;;17.90;99.90;;;;;;5070848;28;20420;-74
2021/12/05 03:33:07;;;;;;;;;;;17.80;99.90;;;;;;5070369;28;19916;-77
2021/12/05 03:35:33;;;;;;;;;;;17.90;99.90;;;;;;5070710;28;19942;-79
2021/12/05 03:38:00;;;;;;;;;;;17.90;99.90;;;;;;5069899;28;20326;-76
2021/12/05 03:40:28;;;;;;;;;;;18.00;99.90;;;;;;5070717;28;19913;-76
2021/12/05 03:42:55;;;;;;;;;;;18.00;99.90;;;;;;5070230;28;19916;-77
2021/12/05 03:45:26;;;;;;;;;;;18.00;99.90;;;;;;5070256;28;19916;-75
2021/12/05 03:47:53;;;;;;;;;;;18.00;99.90;;;;;;5069927;28;19920;-78
2021/12/05 03:50:20;;;;;;;;;;;17.90;99.90;;;;;;5070146;28;19912;-75
2021/12/05 03:52:47;;;;;;;;;;;17.90;99.90;;;;;;5070122;28;19913;-77
2021/12/05 03:55:14;;;;;;;;;;;18.00;99.90;;;;;;5070108;28;19924;-74
2021/12/05 03:57:41;;;;;;;;;;;18.00;99.90;;;;;;5070538;28;20515;-74
2021/12/05 04:00:10;;;;;;;;;;;18.00;99.90;;;;;;5070076;28;20386;-78
2021/12/05 04:02:36;;;;;;;;;;;18.00;99.90;;;;;;5070127;28;19913;-80
2021/12/05 04:05:03;;;;;;;;;;;18.00;99.90;;;;;;5070055;28;19920;-78
2021/12/05 04:07:30;;;;;;;;;;;18.00;99.90;;;;;;5072547;28;19919;-78
2021/12/05 04:09:57;;;;;;;;;;;18.00;99.90;;;;;;5073156;28;19920;-79
2021/12/05 04:12:24;;;;;;;;;;;17.90;99.90;;;;;;5072815;28;20448;-80
2021/12/05 04:14:54;;;;;;;;;;;18.00;99.90;;;;;;5073629;28;20409;-76
2021/12/05 04:17:21;;;;;;;;;;;18.00;99.90;;;;;;5066140;28;20287;-76
2021/12/05 04:19:48;;;;;;;;;;;18.00;99.90;;;;;;5072961;28;19919;-79
2021/12/05 04:22:15;;;;;;;;;;;18.00;99.90;;;;;;5073237;28;19913;-79
2021/12/05 04:24:44;;;;;;;;;;;18.10;99.90;;;;;;5073729;28;19913;-77
2021/12/05 04:27:11;;;;;;;;;;;18.00;99.90;;;;;;5073422;28;20298;-79
2021/12/05 04:29:38;;;;;;;;;;;18.00;99.90;;;;;;5073687;28;20078;-79
2021/12/05 04:32:05;;;;;;;;;;;18.00;99.90;;;;;;5073040;28;19959;-77
2021/12/05 04:34:31;;;;;;;;;;;18.10;99.90;;;;;;5073489;28;20308;-75
2021/12/05 04:36:58;;;;;;;;;;;18.20;99.90;;;;;;5073208;28;19923;-73
2021/12/05 04:39:26;;;;;;;;;;;18.20;99.90;;;;;;5073298;28;19913;-80
2021/12/05 04:41:53;;;;;;;;;;;18.20;99.90;;;;;;5072827;28;19928;-80
2021/12/05 04:44:20;;;;;;;;;;;18.20;99.90;;;;;;5073631;28;20291;-79
2021/12/05 04:46:47;;;;;;;;;;;18.20;99.90;;;;;;5072075;28;20081;-76
2021/12/05 04:49:14;;;;;;;;;;;18.20;99.90;;;;;;5073542;28;19913;-77
2021/12/05 04:51:42;;;;;;;;;;;18.20;99.90;;;;;;5072716;28;19924;-73
2021/12/05 04:54:10;;;;;;;;;;;18.20;99.90;;;;;;5072767;28;20355;-76
2021/12/05 04:56:37;;;;;;;;;;;18.30;99.90;;;;;;5072480;28;19912;-80
2021/12/05 04:59:12;;;;;;;;;;;18.30;99.90;;;;;;5073070;28;19999;-76
2021/12/05 05:01:39;;;;;;;;;;;18.30;99.90;;;;;;5072685;28;20388;-78
2021/12/05 05:04:09;;;;;;;;;;;18.30;99.90;;;;;;5072860;28;19964;-79
2021/12/05 05:06:36;;;;;;;;;;;18.30;99.90;;;;;;5072593;28;20251;-80
2021/12/05 05:09:03;;;;;;;;;;;18.20;99.90;;;;;;5072102;28;19986;-78
2021/12/05 05:11:30;;;;;;;;;;;18.20;99.90;;;;;;5072899;28;19912;-79
2021/12/05 05:13:56;;;;;;;;;;;18.20;99.90;;;;;;5072394;28;19978;-75
2021/12/05 05:16:25;;;;;;;;;;;18.20;99.90;;;;;;5072932;28;19920;-74
2021/12/05 05:18:56;;;;;;;;;;;18.20;99.90;;;;;;5072508;28;19913;-79
2021/12/05 05:41:23;;;;;;;;;;;18.20;99.90;;;;;;5070643;28;19927;-79
2021/12/05 05:45:50;;;;;;;;;;;18.30;99.90;;;;;;5072325;28;19962;-79
2021/12/05 05:50:52;;;;;;;;;;;18.20;99.90;;;;;;5064105;28;19917;-79
2021/12/05 05:53:19;;;;;;;;;;;18.20;99.90;;;;;;5070529;28;19923;-80
2021/12/05 05:55:48;;;;;;;;;;;18.20;99.90;;;;;;5071734;28;20008;-76
2021/12/05 05:58:16;;;;;;;;;;;18.10;99.90;;;;;;5071833;28;19917;-76
2021/12/05 06:03:26;;;;;;;;;;;18.10;99.90;;;;;;5071500;28;19919;-79
2021/12/05 06:06:03;;;;;;;;;;;18.10;99.90;;;;;;5071616;28;19923;-77
2021/12/05 06:08:31;;;;;;;;;;;18.10;99.90;;;;;;5071202;28;19973;-80
2021/12/05 06:10:59;;;;;;;;;;;18.10;99.90;;;;;;5071819;28;19916;-80
2021/12/05 06:13:27;;;;;;;;;;;18.00;99.90;;;;;;5071272;28;20019;-80
2021/12/05 06:15:54;;;;;;;;;;;18.00;99.90;;;;;;5071596;28;19917;-79
2021/12/05 06:18:25;;;;;;;;;;;18.00;99.90;;;;;;5070024;28;20610;-78
2021/12/05 06:20:52;;;;;;;;;;;18.00;99.90;;;;;;5071609;28;20411;-73
2021/12/05 06:23:19;;;;;;;;;;;18.10;99.90;;;;;;5071173;28;20256;-79
2021/12/05 06:25:48;;;;;;;;;;;18.00;99.90;;;;;;5071355;28;19919;-75
2021/12/05 06:28:16;;;;;;;;;;;18.00;99.90;;;;;;5071286;28;20224;-75
2021/12/05 06:30:51;;;;;;;;;;;18.00;99.90;;;;;;5070609;28;20282;-76
2021/12/05 06:46:44;;;;;;;;;;;18.00;99.90;;;;;;5071161;28;20000;-78
2021/12/05 06:49:11;;;;;;;;;;;18.00;99.90;;;;;;5070969;28;19975;-78
2021/12/05 06:51:38;;;;;;;;;;;18.00;99.90;;;;;;5071155;28;19964;-78
2021/12/05 06:54:04;;;;;;;;;;;18.00;99.90;;;;;;5070532;28;20321;-75
2021/12/05 06:56:31;;;;;;;;;;;17.90;99.90;;;;;;5071068;28;19912;-76
2021/12/05 06:58:58;;;;;;;;;;;17.90;99.90;;;;;;5070820;28;20327;-74
2021/12/05 07:01:25;;;;;;;;;;;18.00;99.90;;;;;;5071008;28;19912;-78
2021/12/05 07:03:51;;;;;;;;;;;18.00;99.90;;;;;;5070673;28;19959;-77
2021/12/05 07:06:22;;;;;;;;;;;18.00;99.90;;;;;;5071221;28;20334;-74
2021/12/05 07:08:50;;;;;;;;;;;18.00;99.90;;;;;;5069446;28;20333;-78
2021/12/05 07:11:24;;;;;;;;;;;17.90;99.90;;;;;;5071131;28;19912;-75
2021/12/05 07:16:47;;;;;;;;;;;17.90;99.90;;;;;;5071103;28;19962;-77
2021/12/05 07:22:02;;;;;;;;;;;17.90;99.90;;;;;;5070743;28;19923;-78
2021/12/05 07:24:52;;;;;;;;;;;17.90;99.90;;;;;;5063140;28;19912;-77
2021/12/05 07:41:16;;;;;;;;;;;17.80;99.90;;;;;;5070960;28;19941;-78
2021/12/05 07:43:42;;;;;;;;;;;17.80;99.90;;;;;;5074389;28;19930;-76
2021/12/05 07:46:09;;;;;;;;;;;17.90;99.90;;;;;;5066319;28;20016;-79
2021/12/05 07:48:38;;;;;;;;;;;17.90;99.90;;;;;;5074160;28;19969;-77
2021/12/05 07:51:15;;;;;;;;;;;17.90;99.90;;;;;;5073856;28;19942;-78
2021/12/05 07:53:52;;;;;;;;;;;17.80;99.90;;;;;;5073964;28;19924;-79
2021/12/05 07:56:28;;;;;;;;;;;17.90;99.90;;;;;;5067610;28;20251;-76
2021/12/05 08:15:32;;;;;;;;;;;17.80;99.90;;;;;;5073410;28;19935;-76
2021/12/05 08:17:58;;;;;;;;;;;17.80;99.90;;;;;;5066204;28;19916;-78
2021/12/05 08:20:31;;;;;;;;;;;17.80;99.90;;;;;;5073562;28;19920;-78
2021/12/05 08:22:59;;;;;;;;;;;17.80;99.90;;;;;;5074113;28;19935;-77
2021/12/05 08:25:29;;;;;;;;;;;17.80;99.90;;;;;;5073702;28;19925;-78
2021/12/05 08:28:05;;;;;;;;;;;17.80;99.90;;;;;;5065770;28;19919;-77
2021/12/05 08:30:35;;;;;;;;;;;17.80;99.90;;;;;;5072591;28;19912;-77
2021/12/05 08:36:14;;;;;;;;;;;17.80;99.90;;;;;;5070589;28;19920;-74
2021/12/05 09:20:36;;;;;;;;;;;17.80;99.90;;;;;;5065037;28;19920;-73
2021/12/05 09:23:18;;;;;;;;;;;17.80;99.90;;;;;;5070669;28;19912;-75
2021/12/05 10:06:38;;;;;;;;;;;17.70;99.90;;;;;;5071473;28;20336;-75
2021/12/05 10:09:26;;;;;;;;;;;17.70;99.90;;;;;;5071367;28;19928;-75
2021/12/05 10:38:41;;;;;;;;;;;17.70;99.90;;;;;;5071626;28;19916;-76
2021/12/05 10:42:11;;;;;;;;;;;17.70;99.90;;;;;;5071078;28;20287;-78
2021/12/05 10:43:59;;;;;;;;;;;17.80;99.90;;;;;;5066377;28;19920;-77
2021/12/05 10:46:27;;;;;;;;;;;17.80;99.90;;;;;;5071197;28;19919;-74
2021/12/05 10:48:57;;;;;;;;;;;17.80;99.90;;;;;;5071093;28;20393;-75
2021/12/05 10:51:27;;;;;;;;;;;17.80;99.90;;;;;;5071250;28;19913;-74
2021/12/05 10:53:58;;;;;;;;;;;17.70;99.90;;;;;;5071057;28;19925;-76
2021/12/05 10:56:27;;;;;;;;;;;17.70;99.90;;;;;;5071222;28;19913;-75
2021/12/05 10:58:54;;;;;;;;;;;17.70;99.90;;;;;;5071323;28;19919;-77
2021/12/05 11:01:20;;;;;;;;;;;17.70;99.90;;;;;;5070888;28;19913;-74
2021/12/05 11:03:49;;;;;;;;;;;17.60;99.90;;;;;;5070586;28;19916;-73
2021/12/05 11:06:22;;;;;;;;;;;17.50;99.90;;;;;;5070853;28;19917;-73
2021/12/05 11:08:53;;;;;;;;;;;17.40;99.90;;;;;;5070815;28;19920;-73
2021/12/05 11:11:20;;;;;;;;;;;17.40;99.90;;;;;;5070818;28;19927;-75
2021/12/05 11:13:47;;;;;;;;;;;17.40;99.90;;;;;;5070816;28;19913;-75
2021/12/05 11:16:32;;;;;;;;;;;17.30;99.90;;;;;;5074080;28;19920;-75
2021/12/05 11:18:58;;;;;;;;;;;17.30;99.90;;;;;;5077352;28;20348;-72
2021/12/05 11:21:32;;;;;;;;;;;17.20;99.90;;;;;;5077360;28;20003;-73
2021/12/05 11:24:04;;;;;;;;;;;17.20;99.90;;;;;;5077377;28;19963;-75
2021/12/05 11:26:31;;;;;;;;;;;17.10;99.90;;;;;;5077575;28;19938;-75
2021/12/05 11:28:58;;;;;;;;;;;17.10;99.90;;;;;;5077711;28;19935;-76
2021/12/05 11:31:29;;;;;;;;;;;17.10;99.90;;;;;;5077177;28;19912;-77
2021/12/05 11:33:57;;;;;;;;;;;17.10;99.90;;;;;;5077101;28;20008;-73
2021/12/05 11:36:25;;;;;;;;;;;17.10;99.90;;;;;;5076180;28;19923;-76
2021/12/05 11:38:51;;;;;;;;;;;17.00;99.90;;;;;;5074917;28;20130;-76
2021/12/05 11:41:23;;;;;;;;;;;17.00;99.90;;;;;;5077158;28;20322;-75
2021/12/05 11:43:56;;;;;;;;;;;16.90;99.90;;;;;;5077129;28;19916;-73
2021/12/05 11:46:23;;;;;;;;;;;16.80;99.90;;;;;;5075397;28;19916;-76
2021/12/05 11:48:58;;;;;;;;;;;16.80;99.90;;;;;;5077331;28;19952;-77
2021/12/05 11:51:27;;;;;;;;;;;16.70;99.90;;;;;;5075394;28;19971;-77
2021/12/05 11:54:11;;;;;;;;;;;16.70;99.90;;;;;;5077102;28;20624;-77
2021/12/05 11:56:40;;;;;;;;;;;16.70;99.90;;;;;;5076940;28;19912;-76
2021/12/05 11:59:10;;;;;;;;;;;16.70;99.90;;;;;;5076720;28;19916;-77
2021/12/05 12:01:42;;;;;;;;;;;16.70;99.90;;;;;;5070675;28;20310;-76
2021/12/05 12:04:10;;;;;;;;;;;16.70;99.90;;;;;;5072739;28;19917;-75
2021/12/05 12:06:37;;;;;;;;;;;16.70;99.90;;;;;;5077836;28;19913;-77
2021/12/05 12:09:04;;;;;;;;;;;16.60;99.90;;;;;;5077609;28;20370;-77
2021/12/05 12:11:30;;;;;;;;;;;16.60;99.90;;;;;;5077088;28;20007;-76
2021/12/05 12:13:57;;;;;;;;;;;16.70;99.90;;;;;;5076858;28;19916;-76
2021/12/05 12:16:24;;;;;;;;;;;16.70;99.90;;;;;;5076705;28;19912;-77
2021/12/05 12:18:52;;;;;;;;;;;16.70;99.90;;;;;;5077199;28;19908;-77
2021/12/05 12:21:26;;;;;;;;;;;16.80;99.90;;;;;;5075577;28;19919;-77
2021/12/05 12:23:55;;;;;;;;;;;16.80;99.90;;;;;;5076863;28;19934;-76
2021/12/05 12:26:22;;;;;;;;;;;16.90;99.90;;;;;;5076139;28;19955;-76
2021/12/05 12:28:49;;;;;;;;;;;16.90;99.90;;;;;;5073330;28;20363;-77
2021/12/05 12:31:21;;;;;;;;;;;16.90;99.90;;;;;;5073172;28;20011;-77
2021/12/05 12:33:58;;;;;;;;;;;17.00;99.90;;;;;;5073748;28;19920;-75
2021/12/05 12:36:34;;;;;;;;;;;17.00;99.90;;;;;;5073505;28;19912;-76
2021/12/05 12:39:04;;;;;;;;;;;16.90;99.90;;;;;;5073683;28;19915;-78
2021/12/05 12:41:31;;;;;;;;;;;16.90;99.90;;;;;;5073266;28;19912;-78
2021/12/05 12:44:01;;;;;;;;;;;16.80;99.90;;;;;;5073201;28;19955;-77
2021/12/05 12:46:30;;;;;;;;;;;16.80;99.90;;;;;;5073223;28;19913;-78
2021/12/05 12:49:00;;;;;;;;;;;16.80;99.90;;;;;;5073515;28;19920;-78
2021/12/05 12:51:35;;;;;;;;;;;16.80;99.90;;;;;;5072531;28;19927;-78
2021/12/05 12:54:05;;;;;;;;;;;16.80;99.90;;;;;;5073328;28;19913;-77
2021/12/05 12:56:32;;;;;;;;;;;16.80;99.90;;;;;;5073073;28;20007;-78
2021/12/05 12:59:06;;;;;;;;;;;16.80;99.90;;;;;;5073293;28;19978;-75
2021/12/05 13:02:15;;;;;;;;;;;17.00;99.90;;;;;;5072673;28;19958;-73
2021/12/05 13:10:11;;;;;;;;;;;16.60;99.90;;;;;;5054579;28;19983;-78
2021/12/05 13:12:48;;;;;;;;;;;16.40;99.90;;;;;;5056370;28;19913;-77
2021/12/05 13:15:30;;;;;;;;;;;16.30;99.90;;;;;;5045621;28;19927;-78
2021/12/05 13:17:59;;;;;;;;;;;16.20;99.90;;;;;;5055829;28;19948;-77
2021/12/05 13:20:28;;;;;;;;;;;16.10;99.90;;;;;;5054838;28;20363;-78
2021/12/05 13:23:03;;;;;;;;;;;16.10;99.90;;;;;;5057084;28;20019;-78
2021/12/05 13:25:31;;;;;;;;;;;16.00;99.90;;;;;;5054755;28;19913;-79
2021/12/05 13:27:58;;;;;;;;;;;16.00;99.90;;;;;;5056379;28;19939;-78
2021/12/05 13:30:28;;;;;;;;;;;16.00;99.90;;;;;;5054212;28;19913;-77
2021/12/05 13:33:13;;;;;;;;;;;16.00;99.90;;;;;;5056010;28;19939;-79
2021/12/05 13:35:40;;;;;;;;;;;15.90;99.90;;;;;;5054848;28;20372;-78
2021/12/05 13:38:07;;;;;;;;;;;15.90;99.90;;;;;;5055516;28;20006;-78
2021/12/05 13:40:34;;;;;;;;;;;15.90;99.90;;;;;;5053864;28;19962;-78
2021/12/05 13:43:07;;;;;;;;;;;15.90;99.90;;;;;;5055982;28;19920;-78
2021/12/05 13:45:40;;;;;;;;;;;16.00;99.90;;;;;;5054440;28;19920;-78
2021/12/05 13:48:10;;;;;;;;;;;16.00;99.90;;;;;;5055399;28;20331;-78
2021/12/05 13:50:42;;;;;;;;;;;16.10;99.90;;;;;;5054699;28;19913;-78
2021/12/05 13:53:09;;;;;;;;;;;16.10;99.90;;;;;;5055692;28;19913;-77
2021/12/05 13:55:36;;;;;;;;;;;16.10;99.90;;;;;;5054435;28;20371;-78
2021/12/05 13:58:21;;;;;;;;;;;16.10;99.90;;;;;;5054866;28;19921;-78
2021/12/05 14:01:03;;;;;;;;;;;16.20;99.90;;;;;;5051881;28;20336;-78
2021/12/05 14:03:39;;;;;;;;;;;16.20;99.90;;;;;;5069426;28;19935;-77
2021/12/05 14:06:23;;;;;;;;;;;16.20;99.90;;;;;;5054729;28;20451;-78
2021/12/05 14:08:51;;;;;;;;;;;16.20;99.90;;;;;;5045455;28;20015;-79
2021/12/05 14:11:17;;;;;;;;;;;16.30;99.90;;;;;;5055551;28;19920;-77
2021/12/05 14:13:44;;;;;;;;;;;16.40;99.90;;;;;;5053943;28;19920;-77
2021/12/05 14:16:11;;;;;;;;;;;16.40;99.90;;;;;;5055551;28;20516;-76
2021/12/05 14:18:37;;;;;;;;;;;16.50;99.90;;;;;;5054141;28;20429;-77
2021/12/05 14:21:30;;;;;;;;;;;16.50;99.90;;;;;;5054410;28;19923;-77
2021/12/05 14:23:58;;;;;;;;;;;16.50;99.90;;;;;;5043850;28;19916;-78
2021/12/05 14:26:27;;;;;;;;;;;16.50;99.90;;;;;;5055255;28;19990;-78
2021/12/05 14:28:58;;;;;;;;;;;16.60;99.90;;;;;;5053703;28;19916;-77
2021/12/05 14:31:26;;;;;;;;;;;16.60;99.90;;;;;;5054520;28;19920;-74
2021/12/05 14:33:53;;;;;;;;;;;16.60;99.90;;;;;;5053052;28;19924;-75
2021/12/05 14:36:40;;;;;;;;;;;16.70;99.90;;;;;;5054225;28;20320;-79
2021/12/05 14:39:13;;;;;;;;;;;16.70;99.90;;;;;;5053077;28;19912;-79
2021/12/05 14:41:41;;;;;;;;;;;16.80;99.90;;;;;;5053488;28;19917;-79
2021/12/05 14:44:07;;;;;;;;;;;16.80;99.90;;;;;;5052912;28;19943;-77
2021/12/05 14:46:43;;;;;;;;;;;16.90;99.90;;;;;;5054276;28;19920;-78
2021/12/05 14:49:10;;;;;;;;;;;16.90;99.90;;;;;;5053259;28;20019;-79
2021/12/05 14:51:39;;;;;;;;;;;16.90;99.90;;;;;;5054445;28;19920;-77
2021/12/05 14:54:08;;;;;;;;;;;16.90;99.90;;;;;;5052953;28;20024;-79
2021/12/05 14:56:36;;;;;;;;;;;16.90;99.90;;;;;;5054851;28;19999;-79
2021/12/05 14:59:03;;;;;;;;;;;16.80;99.90;;;;;;5053003;28;20330;-77
2021/12/05 15:01:30;;;;;;;;;;;16.90;99.90;;;;;;5054283;28;20557;-76
2021/12/05 15:03:57;;;;;;;;;;;16.80;99.90;;;;;;5053103;28;19912;-78
2021/12/05 15:06:30;;;;;;;;;;;16.90;99.90;;;;;;5054646;28;19920;-77
2021/12/05 15:08:56;;;;;;;;;;;16.90;99.90;;;;;;5062855;28;20433;-79
2021/12/05 15:11:23;;;;;;;;;;;17.00;99.90;;;;;;5070561;28;19958;-79
2021/12/05 15:13:50;;;;;;;;;;;17.10;99.90;;;;;;5070868;28;19926;-78
2021/12/05 15:16:16;;;;;;;;;;;17.10;99.90;;;;;;5071050;28;20359;-79
2021/12/05 15:18:44;;;;;;;;;;;17.10;99.90;;;;;;5060342;28;20007;-77
2021/12/05 15:21:11;;;;;;;;;;;17.00;99.90;;;;;;5070817;28;20011;-77
2021/12/05 15:23:40;;;;;;;;;;;16.90;99.90;;;;;;5070437;28;19935;-77
2021/12/05 15:26:07;;;;;;;;;;;16.70;99.90;;;;;;5070676;28;19917;-78
2021/12/05 15:28:36;;;;;;;;;;;16.60;99.90;;;;;;5070696;28;19913;-79
2021/12/05 15:31:03;;;;;;;;;;;16.60;99.90;;;;;;5070793;28;19966;-78
2021/12/05 15:33:32;;;;;;;;;;;16.60;99.90;;;;;;5070440;28;19913;-78
2021/12/05 15:35:59;;;;;;;;;;;16.60;99.90;;;;;;5070878;28;20067;-78
2021/12/05 15:38:29;;;;;;;;;;;16.70;99.90;;;;;;5070527;28;20367;-78
2021/12/05 15:40:58;;;;;;;;;;;16.70;99.90;;;;;;5070912;28;19913;-78
2021/12/05 15:43:26;;;;;;;;;;;16.80;99.90;;;;;;5070346;28;19995;-78
2021/12/05 15:45:54;;;;;;;;;;;16.90;99.90;;;;;;5070786;28;19913;-78
2021/12/05 15:48:32;;;;;;;;;;;17.00;99.90;;;;;;5070468;28;19917;-79
2021/12/05 15:51:00;;;;;;;;;;;17.10;99.90;;;;;;5070928;28;20271;-78
2021/12/05 15:53:27;;;;;;;;;;;17.10;99.90;;;;;;5070365;28;19920;-78
2021/12/05 15:55:58;;;;;;;;;;;17.10;99.90;;;;;;5070564;28;19936;-79
2021/12/05 15:58:32;;;;;;;;;;;17.20;99.90;;;;;;5070066;28;20234;-79
2021/12/05 16:01:01;;;;;;;;;;;17.30;99.90;;;;;;5070644;28;19919;-78
2021/12/05 16:03:39;;;;;;;;;;;17.30;99.90;;;;;;5072566;28;19955;-77
2021/12/05 16:06:06;;;;;;;;;;;17.20;99.90;;;;;;5074368;28;19978;-79
2021/12/05 16:08:33;;;;;;;;;;;17.20;99.90;;;;;;5073706;28;19960;-79
2021/12/05 16:11:00;;;;;;;;;;;17.20;99.90;;;;;;5074364;28;20021;-77
2021/12/05 16:13:31;;;;;;;;;;;17.20;99.90;;;;;;5073730;28;19912;-79
2021/12/05 16:16:09;;;;;;;;;;;17.20;99.90;;;;;;5074381;28;19928;-76
2021/12/05 16:18:37;;;;;;;;;;;17.20;99.90;;;;;;5073858;28;19913;-76
2021/12/05 16:21:13;;;;;;;;;;;17.20;99.90;;;;;;5074367;28;19922;-77
2021/12/05 16:23:40;;;;;;;;;;;17.20;99.90;;;;;;5074168;28;19916;-78
2021/12/05 16:26:10;;;;;;;;;;;17.20;99.90;;;;;;5074149;28;19999;-78
2021/12/05 16:28:39;;;;;;;;;;;17.30;99.90;;;;;;5073780;28;19913;-77
2021/12/05 16:31:09;;;;;;;;;;;17.30;99.90;;;;;;5074487;28;19913;-78
2021/12/05 16:33:36;;;;;;;;;;;17.30;99.90;;;;;;5073651;28;20408;-79
2021/12/05 16:36:03;;;;;;;;;;;17.20;99.90;;;;;;5073865;28;19912;-78
2021/12/05 16:38:40;;;;;;;;;;;17.20;99.90;;;;;;5073426;28;19966;-78
2021/12/05 16:41:18;;;;;;;;;;;17.20;99.90;;;;;;5073923;28;19913;-77
2021/12/05 16:43:53;;;;;;;;;;;17.20;99.90;;;;;;5073724;28;19916;-78
2021/12/05 16:46:23;;;;;;;;;;;17.20;99.90;;;;;;5073473;28;19912;-76
2021/12/05 16:48:50;;;;;;;;;;;17.30;99.90;;;;;;5073723;28;19916;-78
2021/12/05 16:51:24;;;;;;;;;;;17.40;99.90;;;;;;5073706;28;19912;-78
2021/12/05 16:53:57;;;;;;;;;;;17.50;99.90;;;;;;5073069;28;19917;-78
2021/12/05 16:56:38;;;;;;;;;;;17.50;99.90;;;;;;5073332;28;19924;-78
2021/12/05 16:59:10;;;;;;;;;;;17.50;99.90;;;;;;5063109;28;19912;-78
2021/12/05 17:01:37;;;;;;;;;;;17.60;99.90;;;;;;5073289;28;20003;-78
2021/12/05 17:04:04;;;;;;;;;;;17.50;99.90;;;;;;5065716;28;20364;-78
2021/12/05 17:06:43;;;;;;;;;;;17.50;99.90;;;;;;5068981;28;19967;-78
2021/12/05 17:09:11;;;;;;;;;;;17.50;99.90;;;;;;5073322;28;19924;-76
2021/12/05 17:11:38;;;;;;;;;;;17.50;99.90;;;;;;5072725;28;20354;-78
2021/12/05 17:14:05;;;;;;;;;;;17.50;99.90;;;;;;5072924;28;19938;-77
2021/12/05 17:16:39;;;;;;;;;;;17.50;99.90;;;;;;5073167;28;19913;-77
2021/12/05 17:19:10;;;;;;;;;;;17.50;99.90;;;;;;5073448;28;19948;-78
2021/12/05 17:21:46;;;;;;;;;;;17.50;99.90;;;;;;5072691;28;19913;-76
2021/12/05 17:24:16;;;;;;;;;;;17.50;99.90;;;;;;5073217;28;20011;-76
2021/12/05 17:26:50;;;;;;;;;;;17.40;99.90;;;;;;5072710;28;19924;-77
2021/12/05 17:29:20;;;;;;;;;;;17.50;99.90;;;;;;5063851;28;19924;-78
2021/12/05 17:31:49;;;;;;;;;;;17.50;99.90;;;;;;5069937;28;19916;-76
2021/12/05 17:34:23;;;;;;;;;;;17.50;99.90;;;;;;5072671;28;19921;-77
2021/12/05 17:36:57;;;;;;;;;;;17.50;99.90;;;;;;5072567;28;20362;-78
2021/12/05 17:39:27;;;;;;;;;;;17.50;99.90;;;;;;5072955;28;19912;-77
2021/12/05 17:41:55;;;;;;;;;;;17.50;99.90;;;;;;5072119;28;19920;-77
2021/12/05 17:44:23;;;;;;;;;;;17.50;99.90;;;;;;5072646;28;19916;-77
2021/12/05 17:46:52;;;;;;;;;;;17.40;99.90;;;;;;5079753;28;19920;-73
2021/12/05 17:49:19;;;;;;;;;;;17.40;99.90;;;;;;5084444;28;19912;-73
2021/12/05 17:51:46;;;;;;;;;;;17.40;99.90;;;;;;5082428;28;19942;-77
2021/12/05 17:54:16;;;;;;;;;;;17.50;99.90;;;;;;5074885;28;19946;-78
2021/12/05 17:56:50;;;;;;;;;;;17.50;99.90;;;;;;5072042;28;19933;-78
2021/12/05 18:04:49;;;;;;;;;;;17.40;99.90;;;;;;5072289;28;20290;-76
2021/12/05 18:07:17;;;;;;;;;;;17.30;99.90;;;;;;5072377;28;19958;-75
2021/12/05 18:09:44;;;;;;;;;;;17.10;99.90;;;;;;5071914;28;19929;-76
2021/12/05 18:12:19;;;;;;;;;;;17.10;99.90;;;;;;5078206;28;19998;-73
2021/12/05 18:14:46;;;;;;;;;;;17.20;99.90;;;;;;5072222;28;19924;-77
2021/12/05 18:17:12;;;;;;;;;;;17.30;99.90;;;;;;5072145;28;20244;-73
2021/12/05 18:19:40;;;;;;;;;;;17.20;99.90;;;;;;5072239;28;20014;-74
2021/12/05 18:22:07;;;;;;;;;;;17.10;99.90;;;;;;5071267;28;20436;-73
2021/12/05 18:24:33;;;;;;;;;;;17.10;99.90;;;;;;5071742;28;19920;-74
2021/12/05 18:27:00;;;;;;;;;;;17.30;99.90;;;;;;5071940;28;20352;-73
2021/12/05 18:29:27;;;;;;;;;;;17.30;99.90;;;;;;5072016;28;19917;-73
2021/12/05 18:31:56;;;;;;;;;;;17.20;99.90;;;;;;5070099;28;19924;-73
2021/12/05 18:34:27;;;;;;;;;;;17.30;99.90;;;;;;5072089;28;20391;-73
2021/12/05 18:36:55;;;;;;;;;;;17.20;99.90;;;;;;5071453;28;19928;-73
2021/12/05 18:39:26;;;;;;;;;;;17.20;99.90;;;;;;5071821;28;19924;-73
2021/12/05 18:41:55;;;;;;;;;;;17.10;99.90;;;;;;5071105;28;19927;-73
2021/12/05 18:44:26;;;;;;;;;;;17.10;99.90;;;;;;5072030;28;20321;-72
2021/12/05 18:46:54;;;;;;;;;;;17.00;99.90;;;;;;5071351;28;19920;-72
2021/12/05 18:49:25;;;;;;;;;;;17.00;99.90;;;;;;5071618;28;19965;-73
2021/12/05 18:51:52;;;;;;;;;;;17.00;99.90;;;;;;5071075;28;19958;-74
2021/12/05 18:54:19;;;;;;;;;;;16.90;99.90;;;;;;5071797;28;19971;-73
2021/12/05 18:56:46;;;;;;;;;;;16.80;99.90;;;;;;5071184;28;20291;-73
2021/12/05 18:59:12;;;;;;;;;;;16.80;99.90;;;;;;5071386;28;19912;-73
2021/12/05 19:04:40;;;;;;;;;;;16.70;99.90;;;;;;5062009;28;19919;-72
2021/12/05 19:07:13;;;;;;;;;;;16.80;99.90;;;;;;5071110;28;19917;-73
2021/12/05 19:12:08;;;;;;;;;;;16.60;99.90;;;;;;5070493;28;19958;-72
2021/12/05 19:14:37;;;;;;;;;;;16.60;99.90;;;;;;5071243;28;19920;-72
2021/12/05 19:17:08;;;;;;;;;;;16.60;99.90;;;;;;5070785;28;19970;-72
2021/12/05 19:19:35;;;;;;;;;;;16.50;99.90;;;;;;5071450;28;20359;-72
2021/12/05 19:22:03;;;;;;;;;;;16.50;99.90;;;;;;5070613;28;19913;-72
2021/12/05 19:24:30;;;;;;;;;;;16.60;99.90;;;;;;5071089;28;19913;-72
2021/12/05 19:26:58;;;;;;;;;;;16.50;99.90;;;;;;5070768;28;20043;-71
2021/12/05 19:29:25;;;;;;;;;;;16.60;99.90;;;;;;5071347;28;19995;-73
2021/12/05 19:31:53;;;;;;;;;;;16.60;99.90;;;;;;5068457;28;20348;-73
2021/12/05 19:34:20;;;;;;;;;;;16.60;99.90;;;;;;5071209;28;19917;-73
2021/12/05 19:36:47;;;;;;;;;;;16.60;99.90;;;;;;5072040;28;20311;-74
2021/12/05 19:39:14;;;;;;;;;;;16.70;99.90;;;;;;5107441;28;20428;-73
2021/12/05 19:41:41;;;;;;;;;;;16.70;99.90;;;;;;5074596;28;19912;-73
2021/12/05 19:44:08;;;;;;;;;;;16.80;99.90;;;;;;5074597;28;19923;-74
2021/12/05 19:46:37;;;;;;;;;;;16.80;99.90;;;;;;5074801;28;19913;-73
2021/12/05 19:49:05;;;;;;;;;;;16.80;99.90;;;;;;5074731;28;19978;-74
2021/12/05 19:51:32;;;;;;;;;;;16.80;99.90;;;;;;5074962;28;19952;-73